sensor_id;sensor_type;location;lat;lon;timestamp;temperature;humidity
11812;DHT22;5963;50.184;9.162;2023-07-02T00:01:42;16.70;99.90
11812;DHT22;5963;50.184;9.162;2023-07-02T00:04:12;16.70;99.90
11812;DHT22;5963;50.184;9.162;2023-07-02T00:06:44;16.60;99.90
11812;DHT22;5963;50.184;9.162;2023-07-02T00:09:15;16.60;99.90
11812;DHT22;5963;50.184;9.162;2023-07-02T00:11:47;16.70;99.90
11812;DHT22;5963;50.184;9.162;2023-07-02T00:14:18;16.60;99.90
11812;DHT22;5963;50.184;9.162;2023-07-02T00:16:48;16.60;99.90
11812;DHT22;5963;50.184;9.162;2023-07-02T00:19:18;16.60;99.90
11812;DHT22;5963;50.184;9.162;2023-07-02T00:21:49;16.50;99.90
11812;DHT22;5963;50.184;9.162;2023-07-02T00:24:18;16.50;99.90
11812;DHT22;5963;50.184;9.162;2023-07-02T00:26:48;16.40;99.90
11812;DHT22;5963;50.184;9.162;2023-07-02T00:29:20;16.40;99.90
11812;DHT22;5963;50.184;9.162;2023-07-02T00:31:50;16.40;99.90
11812;DHT22;5963;50.184;9.162;2023-07-02T00:34:20;16.30;99.90
11812;DHT22;5963;50.184;9.162;2023-07-02T00:36:53;16.30;99.90
11812;DHT22;5963;50.184;9.162;2023-07-02T00:39:23;16.30;99.90
11812;DHT22;5963;50.184;9.162;2023-07-02T00:41:51;16.30;99.90
11812;DHT22;5963;50.184;9.162;2023-07-02T00:44:26;16.20;99.90
11812;DHT22;5963;50.184;9.162;2023-07-02T00:46:56;16.20;99.90
11812;DHT22;5963;50.184;9.162;2023-07-02T00:49:27;16.20;99.90
11812;DHT22;5963;50.184;9.162;2023-07-02T00:51:59;16.20;99.90
11812;DHT22;5963;50.184;9.162;2023-07-02T00:54:30;16.20;99.90
11812;DHT22;5963;50.184;9.162;2023-07-02T00:57:00;16.10;99.90
11812;DHT22;5963;50.184;9.162;2023-07-02T00:59:34;16.10;99.90
11812;DHT22;5963;50.184;9.162;2023-07-02T01:02:05;16.10;99.90
11812;DHT22;5963;50.184;9.162;2023-07-02T01:04:35;16.10;99.90
11812;DHT22;5963;50.184;9.162;2023-07-02T01:07:06;16.00;99.90
11812;DHT22;5963;50.184;9.162;2023-07-02T01:09:38;16.00;99.90
11812;DHT22;5963;50.184;9.162;2023-07-02T01:12:10;16.00;99.90
11812;DHT22;5963;50.184;9.162;2023-07-02T01:14:43;16.00;99.90
11812;DHT22;5963;50.184;9.162;2023-07-02T01:17:14;16.00;99.90
11812;DHT22;5963;50.184;9.162;2023-07-02T01:19:51;16.00;99.90
11812;DHT22;5963;50.184;9.162;2023-07-02T01:22:23;15.90;99.90
11812;DHT22;5963;50.184;9.162;2023-07-02T01:24:57;16.00;99.90
11812;DHT22;5963;50.184;9.162;2023-07-02T01:27:29;16.00;99.90
11812;DHT22;5963;50.184;9.162;2023-07-02T01:29:59;16.00;99.90
11812;DHT22;5963;50.184;9.162;2023-07-02T01:32:29;15.90;99.90
11812;DHT22;5963;50.184;9.162;2023-07-02T01:35:01;15.90;99.90
11812;DHT22;5963;50.184;9.162;2023-07-02T01:37:30;15.90;99.90
11812;DHT22;5963;50.184;9.162;2023-07-02T01:40:06;15.90;99.90
11812;DHT22;5963;50.184;9.162;2023-07-02T01:42:37;15.80;99.90
11812;DHT22;5963;50.184;9.162;2023-07-02T01:45:08;15.80;99.90
11812;DHT22;5963;50.184;9.162;2023-07-02T01:47:38;15.70;99.90
11812;DHT22;5963;50.184;9.162;2023-07-02T01:50:11;15.70;99.90
11812;DHT22;5963;50.184;9.162;2023-07-02T01:52:41;15.60;99.90
11812;DHT22;5963;50.184;9.162;2023-07-02T01:55:11;15.50;99.90
11812;DHT22;5963;50.184;9.162;2023-07-02T01:57:41;15.50;99.90
11812;DHT22;5963;50.184;9.162;2023-07-02T02:00:12;15.40;99.90
11812;DHT22;5963;50.184;9.162;2023-07-02T02:02:42;15.50;99.90
11812;DHT22;5963;50.184;9.162;2023-07-02T02:05:13;15.50;99.90
11812;DHT22;5963;50.184;9.162;2023-07-02T02:07:43;15.50;99.90
11812;DHT22;5963;50.184;9.162;2023-07-02T02:10:13;15.50;99.90
11812;DHT22;5963;50.184;9.162;2023-07-02T02:12:43;15.50;99.90
11812;DHT22;5963;50.184;9.162;2023-07-02T02:15:13;15.50;99.90
11812;DHT22;5963;50.184;9.162;2023-07-02T02:17:43;15.50;99.90
11812;DHT22;5963;50.184;9.162;2023-07-02T02:20:15;15.40;99.90
11812;DHT22;5963;50.184;9.162;2023-07-02T02:22:44;15.40;99.90
11812;DHT22;5963;50.184;9.162;2023-07-02T02:25:14;15.40;99.90
11812;DHT22;5963;50.184;9.162;2023-07-02T02:27:44;15.30;99.90
11812;DHT22;5963;50.184;9.162;2023-07-02T02:30:14;15.30;99.90
11812;DHT22;5963;50.184;9.162;2023-07-02T02:32:44;15.30;99.90
11812;DHT22;5963;50.184;9.162;2023-07-02T02:35:15;15.40;99.90
11812;DHT22;5963;50.184;9.162;2023-07-02T02:37:45;15.30;99.90
11812;DHT22;5963;50.184;9.162;2023-07-02T02:40:15;15.30;99.90
11812;DHT22;5963;50.184;9.162;2023-07-02T02:42:45;15.30;99.90
11812;DHT22;5963;50.184;9.162;2023-07-02T02:45:16;15.30;99.90
11812;DHT22;5963;50.184;9.162;2023-07-02T02:47:47;15.30;99.90
11812;DHT22;5963;50.184;9.162;2023-07-02T02:50:18;15.30;99.90
11812;DHT22;5963;50.184;9.162;2023-07-02T02:52:48;15.30;99.90
11812;DHT22;5963;50.184;9.162;2023-07-02T02:55:18;15.40;99.90
11812;DHT22;5963;50.184;9.162;2023-07-02T02:57:48;15.30;99.90
11812;DHT22;5963;50.184;9.162;2023-07-02T03:00:18;15.30;99.90
11812;DHT22;5963;50.184;9.162;2023-07-02T03:02:48;15.20;99.90
11812;DHT22;5963;50.184;9.162;2023-07-02T03:05:19;15.20;99.90
11812;DHT22;5963;50.184;9.162;2023-07-02T03:07:49;15.10;99.90
11812;DHT22;5963;50.184;9.162;2023-07-02T03:10:19;15.10;99.90
11812;DHT22;5963;50.184;9.162;2023-07-02T03:12:52;15.10;99.90
11812;DHT22;5963;50.184;9.162;2023-07-02T03:15:22;15.10;99.90
11812;DHT22;5963;50.184;9.162;2023-07-02T03:17:52;15.10;99.90
11812;DHT22;5963;50.184;9.162;2023-07-02T03:20:23;15.00;99.90
11812;DHT22;5963;50.184;9.162;2023-07-02T03:22:55;15.00;99.90
11812;DHT22;5963;50.184;9.162;2023-07-02T03:25:25;15.00;99.90
11812;DHT22;5963;50.184;9.162;2023-07-02T03:27:54;15.00;99.90
11812;DHT22;5963;50.184;9.162;2023-07-02T03:30:26;15.00;99.90
11812;DHT22;5963;50.184;9.162;2023-07-02T03:32:57;14.90;99.90
11812;DHT22;5963;50.184;9.162;2023-07-02T03:35:28;14.90;99.90
11812;DHT22;5963;50.184;9.162;2023-07-02T03:37:58;15.00;99.90
11812;DHT22;5963;50.184;9.162;2023-07-02T03:40:28;14.90;99.90
11812;DHT22;5963;50.184;9.162;2023-07-02T03:42:58;15.00;99.90
11812;DHT22;5963;50.184;9.162;2023-07-02T03:45:27;14.90;99.90
11812;DHT22;5963;50.184;9.162;2023-07-02T03:47:58;14.90;99.90
11812;DHT22;5963;50.184;9.162;2023-07-02T03:50:29;14.90;99.90
11812;DHT22;5963;50.184;9.162;2023-07-02T03:52:59;14.90;99.90
11812;DHT22;5963;50.184;9.162;2023-07-02T03:55:29;14.90;99.90
11812;DHT22;5963;50.184;9.162;2023-07-02T03:57:59;14.90;99.90
11812;DHT22;5963;50.184;9.162;2023-07-02T04:00:29;14.80;99.90
11812;DHT22;5963;50.184;9.162;2023-07-02T04:02:58;14.80;99.90
11812;DHT22;5963;50.184;9.162;2023-07-02T04:05:30;14.90;99.90
11812;DHT22;5963;50.184;9.162;2023-07-02T04:08:08;14.80;99.90
11812;DHT22;5963;50.184;9.162;2023-07-02T04:10:38;14.70;99.90
11812;DHT22;5963;50.184;9.162;2023-07-02T04:13:12;14.70;99.90
11812;DHT22;5963;50.184;9.162;2023-07-02T04:15:43;14.70;99.90
11812;DHT22;5963;50.184;9.162;2023-07-02T04:18:15;14.60;99.90
11812;DHT22;5963;50.184;9.162;2023-07-02T04:20:47;14.60;99.90
11812;DHT22;5963;50.184;9.162;2023-07-02T04:23:17;14.70;99.90
11812;DHT22;5963;50.184;9.162;2023-07-02T04:25:47;14.70;99.90
11812;DHT22;5963;50.184;9.162;2023-07-02T04:28:37;14.70;99.90
11812;DHT22;5963;50.184;9.162;2023-07-02T04:31:08;14.70;99.90
11812;DHT22;5963;50.184;9.162;2023-07-02T04:33:37;14.80;99.90
11812;DHT22;5963;50.184;9.162;2023-07-02T04:36:13;14.70;99.90
11812;DHT22;5963;50.184;9.162;2023-07-02T04:38:43;14.70;99.90
11812;DHT22;5963;50.184;9.162;2023-07-02T04:41:19;14.70;99.90
11812;DHT22;5963;50.184;9.162;2023-07-02T04:43:49;14.70;99.90
11812;DHT22;5963;50.184;9.162;2023-07-02T04:46:19;14.70;99.90
11812;DHT22;5963;50.184;9.162;2023-07-02T04:48:50;14.70;99.90
11812;DHT22;5963;50.184;9.162;2023-07-02T04:51:22;14.80;99.90
11812;DHT22;5963;50.184;9.162;2023-07-02T04:53:52;14.80;99.90
11812;DHT22;5963;50.184;9.162;2023-07-02T04:56:22;14.90;99.90
11812;DHT22;5963;50.184;9.162;2023-07-02T04:58:51;15.10;99.90
11812;DHT22;5963;50.184;9.162;2023-07-02T05:01:21;15.00;99.90
11812;DHT22;5963;50.184;9.162;2023-07-02T05:03:51;15.10;99.90
11812;DHT22;5963;50.184;9.162;2023-07-02T05:06:24;15.10;99.90
11812;DHT22;5963;50.184;9.162;2023-07-02T05:08:54;15.30;99.90
11812;DHT22;5963;50.184;9.162;2023-07-02T05:11:24;15.50;99.90
11812;DHT22;5963;50.184;9.162;2023-07-02T05:13:56;15.50;99.90
11812;DHT22;5963;50.184;9.162;2023-07-02T05:16:26;15.50;99.90
11812;DHT22;5963;50.184;9.162;2023-07-02T05:18:57;15.70;99.90
11812;DHT22;5963;50.184;9.162;2023-07-02T05:21:28;16.00;99.90
11812;DHT22;5963;50.184;9.162;2023-07-02T05:24:02;17.10;99.90
11812;DHT22;5963;50.184;9.162;2023-07-02T05:26:32;17.60;99.90
11812;DHT22;5963;50.184;9.162;2023-07-02T05:29:02;17.70;99.90
11812;DHT22;5963;50.184;9.162;2023-07-02T05:31:36;17.40;99.90
11812;DHT22;5963;50.184;9.162;2023-07-02T05:34:06;17.00;99.90
11812;DHT22;5963;50.184;9.162;2023-07-02T05:36:38;16.90;99.90
11812;DHT22;5963;50.184;9.162;2023-07-02T05:39:08;16.40;99.90
11812;DHT22;5963;50.184;9.162;2023-07-02T05:41:38;16.60;99.90
11812;DHT22;5963;50.184;9.162;2023-07-02T05:44:08;17.00;99.90
11812;DHT22;5963;50.184;9.162;2023-07-02T05:46:38;16.50;99.90
11812;DHT22;5963;50.184;9.162;2023-07-02T05:49:08;16.70;99.90
11812;DHT22;5963;50.184;9.162;2023-07-02T05:51:43;17.00;99.90
11812;DHT22;5963;50.184;9.162;2023-07-02T05:54:13;16.60;99.90
11812;DHT22;5963;50.184;9.162;2023-07-02T05:56:46;16.70;99.90
11812;DHT22;5963;50.184;9.162;2023-07-02T05:59:16;16.90;99.90
11812;DHT22;5963;50.184;9.162;2023-07-02T06:01:47;16.70;99.90
11812;DHT22;5963;50.184;9.162;2023-07-02T06:04:17;16.90;99.90
11812;DHT22;5963;50.184;9.162;2023-07-02T06:06:50;17.10;99.90
11812;DHT22;5963;50.184;9.162;2023-07-02T06:09:21;17.30;99.90
11812;DHT22;5963;50.184;9.162;2023-07-02T06:11:51;17.20;99.90
11812;DHT22;5963;50.184;9.162;2023-07-02T06:14:21;16.90;99.90
11812;DHT22;5963;50.184;9.162;2023-07-02T06:16:53;16.70;99.90
11812;DHT22;5963;50.184;9.162;2023-07-02T06:19:25;16.70;99.90
11812;DHT22;5963;50.184;9.162;2023-07-02T06:21:57;16.60;99.90
11812;DHT22;5963;50.184;9.162;2023-07-02T06:24:27;16.90;99.90
11812;DHT22;5963;50.184;9.162;2023-07-02T06:26:59;16.60;99.90
11812;DHT22;5963;50.184;9.162;2023-07-02T06:29:30;16.50;99.90
11812;DHT22;5963;50.184;9.162;2023-07-02T06:32:04;16.60;99.90
11812;DHT22;5963;50.184;9.162;2023-07-02T06:34:34;16.80;99.90
11812;DHT22;5963;50.184;9.162;2023-07-02T06:37:06;17.00;99.90
11812;DHT22;5963;50.184;9.162;2023-07-02T06:39:36;17.00;99.90
11812;DHT22;5963;50.184;9.162;2023-07-02T06:42:06;17.00;99.90
11812;DHT22;5963;50.184;9.162;2023-07-02T06:44:36;17.10;99.90
11812;DHT22;5963;50.184;9.162;2023-07-02T06:47:06;17.10;99.90
11812;DHT22;5963;50.184;9.162;2023-07-02T06:49:36;16.90;99.90
11812;DHT22;5963;50.184;9.162;2023-07-02T06:52:13;16.90;99.90
11812;DHT22;5963;50.184;9.162;2023-07-02T06:54:43;16.80;99.90
11812;DHT22;5963;50.184;9.162;2023-07-02T06:57:16;16.90;99.90
11812;DHT22;5963;50.184;9.162;2023-07-02T06:59:46;16.80;99.90
11812;DHT22;5963;50.184;9.162;2023-07-02T07:02:18;17.00;99.90
11812;DHT22;5963;50.184;9.162;2023-07-02T07:04:48;17.20;99.90
11812;DHT22;5963;50.184;9.162;2023-07-02T07:07:19;17.20;99.90
11812;DHT22;5963;50.184;9.162;2023-07-02T07:09:49;17.30;99.90
11812;DHT22;5963;50.184;9.162;2023-07-02T07:12:19;17.40;99.90
11812;DHT22;5963;50.184;9.162;2023-07-02T07:14:52;17.70;99.90
11812;DHT22;5963;50.184;9.162;2023-07-02T07:17:23;17.70;99.90
11812;DHT22;5963;50.184;9.162;2023-07-02T07:19:53;17.90;99.90
11812;DHT22;5963;50.184;9.162;2023-07-02T07:22:26;18.10;99.90
11812;DHT22;5963;50.184;9.162;2023-07-02T07:24:56;18.30;99.90
11812;DHT22;5963;50.184;9.162;2023-07-02T07:27:26;18.20;99.90
11812;DHT22;5963;50.184;9.162;2023-07-02T07:30:00;18.60;99.90
11812;DHT22;5963;50.184;9.162;2023-07-02T07:32:30;18.30;99.90
11812;DHT22;5963;50.184;9.162;2023-07-02T07:34:59;18.10;99.90
11812;DHT22;5963;50.184;9.162;2023-07-02T07:37:31;18.20;99.90
11812;DHT22;5963;50.184;9.162;2023-07-02T07:40:00;18.30;99.90
11812;DHT22;5963;50.184;9.162;2023-07-02T07:42:30;18.50;99.90
11812;DHT22;5963;50.184;9.162;2023-07-02T07:45:01;18.10;99.90
11812;DHT22;5963;50.184;9.162;2023-07-02T07:47:31;18.10;99.90
11812;DHT22;5963;50.184;9.162;2023-07-02T07:50:01;17.90;99.90
11812;DHT22;5963;50.184;9.162;2023-07-02T07:52:32;18.00;99.90
11812;DHT22;5963;50.184;9.162;2023-07-02T07:55:02;18.00;99.90
11812;DHT22;5963;50.184;9.162;2023-07-02T07:57:33;18.20;99.90
11812;DHT22;5963;50.184;9.162;2023-07-02T08:00:01;18.20;99.90
11812;DHT22;5963;50.184;9.162;2023-07-02T08:02:33;18.50;99.90
11812;DHT22;5963;50.184;9.162;2023-07-02T08:05:03;18.60;99.90
11812;DHT22;5963;50.184;9.162;2023-07-02T08:07:35;18.80;99.90
11812;DHT22;5963;50.184;9.162;2023-07-02T08:10:05;18.30;99.90
11812;DHT22;5963;50.184;9.162;2023-07-02T08:12:36;18.50;99.90
11812;DHT22;5963;50.184;9.162;2023-07-02T08:15:07;19.00;99.90
11812;DHT22;5963;50.184;9.162;2023-07-02T08:17:37;19.20;99.90
11812;DHT22;5963;50.184;9.162;2023-07-02T08:20:08;19.20;99.90
11812;DHT22;5963;50.184;9.162;2023-07-02T08:22:40;19.70;99.90
11812;DHT22;5963;50.184;9.162;2023-07-02T08:25:14;19.70;99.90
11812;DHT22;5963;50.184;9.162;2023-07-02T08:27:47;19.70;99.90
11812;DHT22;5963;50.184;9.162;2023-07-02T08:30:19;19.80;99.90
11812;DHT22;5963;50.184;9.162;2023-07-02T08:32:49;19.80;99.90
11812;DHT22;5963;50.184;9.162;2023-07-02T08:35:22;19.40;99.90
11812;DHT22;5963;50.184;9.162;2023-07-02T08:37:55;19.30;99.90
11812;DHT22;5963;50.184;9.162;2023-07-02T08:40:27;19.40;99.90
11812;DHT22;5963;50.184;9.162;2023-07-02T08:42:57;19.80;99.90
11812;DHT22;5963;50.184;9.162;2023-07-02T08:45:30;20.20;99.90
11812;DHT22;5963;50.184;9.162;2023-07-02T08:48:00;20.00;99.90
11812;DHT22;5963;50.184;9.162;2023-07-02T08:50:30;19.90;99.90
11812;DHT22;5963;50.184;9.162;2023-07-02T08:53:01;19.50;99.90
11812;DHT22;5963;50.184;9.162;2023-07-02T08:55:35;20.20;99.90
11812;DHT22;5963;50.184;9.162;2023-07-02T08:58:05;20.30;99.90
11812;DHT22;5963;50.184;9.162;2023-07-02T09:00:35;20.20;99.90
11812;DHT22;5963;50.184;9.162;2023-07-02T09:03:15;20.50;99.90
11812;DHT22;5963;50.184;9.162;2023-07-02T09:05:52;20.30;99.90
11812;DHT22;5963;50.184;9.162;2023-07-02T09:08:27;20.50;99.90
11812;DHT22;5963;50.184;9.162;2023-07-02T09:11:07;20.80;99.90
11812;DHT22;5963;50.184;9.162;2023-07-02T09:13:42;21.50;99.90
11812;DHT22;5963;50.184;9.162;2023-07-02T09:16:21;21.40;99.90
11812;DHT22;5963;50.184;9.162;2023-07-02T09:18:56;20.50;99.90
11812;DHT22;5963;50.184;9.162;2023-07-02T09:21:28;20.50;99.90
11812;DHT22;5963;50.184;9.162;2023-07-02T09:23:57;20.80;99.90
11812;DHT22;5963;50.184;9.162;2023-07-02T09:26:27;20.60;99.90
11812;DHT22;5963;50.184;9.162;2023-07-02T09:29:02;20.50;99.90
11812;DHT22;5963;50.184;9.162;2023-07-02T09:31:42;21.10;99.90
11812;DHT22;5963;50.184;9.162;2023-07-02T09:34:32;21.70;99.90
11812;DHT22;5963;50.184;9.162;2023-07-02T09:37:04;22.20;99.90
11812;DHT22;5963;50.184;9.162;2023-07-02T09:39:37;22.10;99.90
11812;DHT22;5963;50.184;9.162;2023-07-02T09:42:09;22.20;99.90
11812;DHT22;5963;50.184;9.162;2023-07-02T09:44:40;22.00;99.90
11812;DHT22;5963;50.184;9.162;2023-07-02T09:47:12;22.40;99.90
11812;DHT22;5963;50.184;9.162;2023-07-02T09:49:45;22.60;99.90
11812;DHT22;5963;50.184;9.162;2023-07-02T09:52:21;22.80;99.90
11812;DHT22;5963;50.184;9.162;2023-07-02T09:54:52;22.50;99.90
11812;DHT22;5963;50.184;9.162;2023-07-02T09:57:22;22.50;99.90
11812;DHT22;5963;50.184;9.162;2023-07-02T09:59:52;22.50;99.90
11812;DHT22;5963;50.184;9.162;2023-07-02T10:02:25;22.60;99.90
11812;DHT22;5963;50.184;9.162;2023-07-02T10:05:00;22.60;99.90
11812;DHT22;5963;50.184;9.162;2023-07-02T10:07:32;23.10;99.90
11812;DHT22;5963;50.184;9.162;2023-07-02T10:10:04;23.40;99.90
11812;DHT22;5963;50.184;9.162;2023-07-02T10:12:44;23.70;99.90
11812;DHT22;5963;50.184;9.162;2023-07-02T10:15:24;23.50;99.90
11812;DHT22;5963;50.184;9.162;2023-07-02T10:17:58;23.20;99.90
11812;DHT22;5963;50.184;9.162;2023-07-02T10:20:34;23.60;99.90
11812;DHT22;5963;50.184;9.162;2023-07-02T10:23:15;23.80;99.90
11812;DHT22;5963;50.184;9.162;2023-07-02T10:25:48;23.40;99.90
11812;DHT22;5963;50.184;9.162;2023-07-02T10:28:21;22.90;99.90
11812;DHT22;5963;50.184;9.162;2023-07-02T10:30:55;22.10;99.90
11812;DHT22;5963;50.184;9.162;2023-07-02T10:33:29;22.20;99.90
11812;DHT22;5963;50.184;9.162;2023-07-02T10:36:08;22.80;99.90
11812;DHT22;5963;50.184;9.162;2023-07-02T10:38:46;23.20;99.90
11812;DHT22;5963;50.184;9.162;2023-07-02T10:41:27;23.10;99.90
11812;DHT22;5963;50.184;9.162;2023-07-02T10:44:10;22.40;99.90
11812;DHT22;5963;50.184;9.162;2023-07-02T10:46:46;22.90;99.90
11812;DHT22;5963;50.184;9.162;2023-07-02T10:49:20;23.40;99.90
11812;DHT22;5963;50.184;9.162;2023-07-02T10:51:58;23.80;99.90
11812;DHT22;5963;50.184;9.162;2023-07-02T10:54:38;23.40;99.90
11812;DHT22;5963;50.184;9.162;2023-07-02T10:57:12;22.60;99.90
11812;DHT22;5963;50.184;9.162;2023-07-02T10:59:43;22.50;99.90
11812;DHT22;5963;50.184;9.162;2023-07-02T11:02:17;22.20;99.90
11812;DHT22;5963;50.184;9.162;2023-07-02T11:04:48;22.10;99.90
11812;DHT22;5963;50.184;9.162;2023-07-02T11:07:24;22.10;99.90
11812;DHT22;5963;50.184;9.162;2023-07-02T11:09:55;22.20;99.90
11812;DHT22;5963;50.184;9.162;2023-07-02T11:12:31;22.20;99.90
11812;DHT22;5963;50.184;9.162;2023-07-02T11:15:11;22.20;99.90
11812;DHT22;5963;50.184;9.162;2023-07-02T11:17:43;22.10;99.90
11812;DHT22;5963;50.184;9.162;2023-07-02T11:20:20;22.30;99.90
11812;DHT22;5963;50.184;9.162;2023-07-02T11:22:52;22.60;99.90
11812;DHT22;5963;50.184;9.162;2023-07-02T11:25:23;22.60;99.90
11812;DHT22;5963;50.184;9.162;2023-07-02T11:28:06;22.90;99.90
11812;DHT22;5963;50.184;9.162;2023-07-02T11:30:47;23.40;99.90
11812;DHT22;5963;50.184;9.162;2023-07-02T11:33:17;24.00;99.90
11812;DHT22;5963;50.184;9.162;2023-07-02T11:35:49;24.30;99.90
11812;DHT22;5963;50.184;9.162;2023-07-02T11:38:20;24.20;99.90
11812;DHT22;5963;50.184;9.162;2023-07-02T11:40:50;24.10;99.90
11812;DHT22;5963;50.184;9.162;2023-07-02T11:43:24;24.30;99.90
11812;DHT22;5963;50.184;9.162;2023-07-02T11:45:54;23.80;99.90
11812;DHT22;5963;50.184;9.162;2023-07-02T11:48:28;23.70;99.90
11812;DHT22;5963;50.184;9.162;2023-07-02T11:51:00;23.50;99.90
11812;DHT22;5963;50.184;9.162;2023-07-02T11:53:30;23.80;99.90
11812;DHT22;5963;50.184;9.162;2023-07-02T11:56:00;23.90;99.90
11812;DHT22;5963;50.184;9.162;2023-07-02T11:58:31;23.80;99.90
11812;DHT22;5963;50.184;9.162;2023-07-02T12:01:02;23.80;99.90
11812;DHT22;5963;50.184;9.162;2023-07-02T12:03:32;23.60;99.90
11812;DHT22;5963;50.184;9.162;2023-07-02T12:06:01;23.90;99.90
11812;DHT22;5963;50.184;9.162;2023-07-02T12:08:31;24.40;99.90
11812;DHT22;5963;50.184;9.162;2023-07-02T12:11:08;25.00;99.90
11812;DHT22;5963;50.184;9.162;2023-07-02T12:13:42;24.90;99.90
11812;DHT22;5963;50.184;9.162;2023-07-02T12:16:14;25.00;99.90
11812;DHT22;5963;50.184;9.162;2023-07-02T12:18:48;24.80;99.90
11812;DHT22;5963;50.184;9.162;2023-07-02T12:21:18;24.70;99.90
11812;DHT22;5963;50.184;9.162;2023-07-02T12:23:48;24.80;99.90
11812;DHT22;5963;50.184;9.162;2023-07-02T12:26:18;24.10;99.90
11812;DHT22;5963;50.184;9.162;2023-07-02T12:28:55;23.50;99.90
11812;DHT22;5963;50.184;9.162;2023-07-02T12:31:27;23.90;99.90
11812;DHT22;5963;50.184;9.162;2023-07-02T12:33:58;24.30;99.90
11812;DHT22;5963;50.184;9.162;2023-07-02T12:36:28;24.20;99.90
11812;DHT22;5963;50.184;9.162;2023-07-02T12:39:01;24.60;99.90
11812;DHT22;5963;50.184;9.162;2023-07-02T12:41:35;24.30;99.90
11812;DHT22;5963;50.184;9.162;2023-07-02T12:44:23;24.30;99.90
11812;DHT22;5963;50.184;9.162;2023-07-02T12:47:01;25.10;99.90
11812;DHT22;5963;50.184;9.162;2023-07-02T12:49:31;24.50;99.90
11812;DHT22;5963;50.184;9.162;2023-07-02T12:52:02;24.90;99.90
11812;DHT22;5963;50.184;9.162;2023-07-02T12:54:37;24.90;99.90
11812;DHT22;5963;50.184;9.162;2023-07-02T12:57:09;25.10;99.90
11812;DHT22;5963;50.184;9.162;2023-07-02T12:59:49;25.20;99.50
11812;DHT22;5963;50.184;9.162;2023-07-02T13:02:22;25.00;99.90
11812;DHT22;5963;50.184;9.162;2023-07-02T13:04:53;24.60;99.20
11812;DHT22;5963;50.184;9.162;2023-07-02T13:07:25;24.50;99.90
11812;DHT22;5963;50.184;9.162;2023-07-02T13:09:59;24.30;99.80
11812;DHT22;5963;50.184;9.162;2023-07-02T13:12:29;24.10;99.90
11812;DHT22;5963;50.184;9.162;2023-07-02T13:15:01;24.50;99.00
11812;DHT22;5963;50.184;9.162;2023-07-02T13:17:31;24.50;98.30
11812;DHT22;5963;50.184;9.162;2023-07-02T13:20:03;24.70;99.00
11812;DHT22;5963;50.184;9.162;2023-07-02T13:22:35;24.70;98.60
11812;DHT22;5963;50.184;9.162;2023-07-02T13:25:11;24.70;98.50
11812;DHT22;5963;50.184;9.162;2023-07-02T13:27:41;25.20;98.30
11812;DHT22;5963;50.184;9.162;2023-07-02T13:30:15;25.80;97.40
11812;DHT22;5963;50.184;9.162;2023-07-02T13:32:50;25.70;96.90
11812;DHT22;5963;50.184;9.162;2023-07-02T13:35:21;25.50;95.60
11812;DHT22;5963;50.184;9.162;2023-07-02T13:37:59;25.90;94.60
11812;DHT22;5963;50.184;9.162;2023-07-02T13:40:30;25.60;94.30
11812;DHT22;5963;50.184;9.162;2023-07-02T13:43:01;25.40;93.80
11812;DHT22;5963;50.184;9.162;2023-07-02T13:45:33;25.80;94.10
11812;DHT22;5963;50.184;9.162;2023-07-02T13:48:03;26.20;93.00
11812;DHT22;5963;50.184;9.162;2023-07-02T13:50:36;26.10;92.70
11812;DHT22;5963;50.184;9.162;2023-07-02T13:53:08;25.50;93.50
11812;DHT22;5963;50.184;9.162;2023-07-02T13:55:38;25.50;93.60
11812;DHT22;5963;50.184;9.162;2023-07-02T13:58:14;24.40;93.90
11812;DHT22;5963;50.184;9.162;2023-07-02T14:01:03;24.80;94.50
11812;DHT22;5963;50.184;9.162;2023-07-02T14:03:34;25.30;93.40
11812;DHT22;5963;50.184;9.162;2023-07-02T14:06:08;25.30;92.60
11812;DHT22;5963;50.184;9.162;2023-07-02T14:08:40;24.70;92.40
11812;DHT22;5963;50.184;9.162;2023-07-02T14:11:10;24.60;92.80
11812;DHT22;5963;50.184;9.162;2023-07-02T14:13:43;24.70;93.40
11812;DHT22;5963;50.184;9.162;2023-07-02T14:16:17;25.10;92.60
11812;DHT22;5963;50.184;9.162;2023-07-02T14:18:50;25.10;92.30
11812;DHT22;5963;50.184;9.162;2023-07-02T14:21:20;25.20;91.60
11812;DHT22;5963;50.184;9.162;2023-07-02T14:23:50;25.10;91.90
11812;DHT22;5963;50.184;9.162;2023-07-02T14:26:20;24.90;91.30
11812;DHT22;5963;50.184;9.162;2023-07-02T14:28:51;25.00;91.90
11812;DHT22;5963;50.184;9.162;2023-07-02T14:31:30;24.90;91.30
11812;DHT22;5963;50.184;9.162;2023-07-02T14:34:02;24.90;91.40
11812;DHT22;5963;50.184;9.162;2023-07-02T14:36:35;24.50;92.30
11812;DHT22;5963;50.184;9.162;2023-07-02T14:39:05;24.80;91.80
11812;DHT22;5963;50.184;9.162;2023-07-02T14:41:44;25.10;90.70
11812;DHT22;5963;50.184;9.162;2023-07-02T14:44:16;25.00;91.00
11812;DHT22;5963;50.184;9.162;2023-07-02T14:46:48;25.20;90.80
11812;DHT22;5963;50.184;9.162;2023-07-02T14:49:31;25.30;90.90
11812;DHT22;5963;50.184;9.162;2023-07-02T14:52:02;25.50;89.80
11812;DHT22;5963;50.184;9.162;2023-07-02T14:54:33;24.90;88.00
11812;DHT22;5963;50.184;9.162;2023-07-02T14:57:06;24.00;89.20
11812;DHT22;5963;50.184;9.162;2023-07-02T14:59:36;23.90;90.30
11812;DHT22;5963;50.184;9.162;2023-07-02T15:02:09;23.90;90.50
11812;DHT22;5963;50.184;9.162;2023-07-02T15:04:43;24.20;90.80
11812;DHT22;5963;50.184;9.162;2023-07-02T15:07:13;24.60;90.60
11812;DHT22;5963;50.184;9.162;2023-07-02T15:09:45;24.90;90.20
11812;DHT22;5963;50.184;9.162;2023-07-02T15:12:15;25.10;90.70
11812;DHT22;5963;50.184;9.162;2023-07-02T15:14:45;25.20;90.10
11812;DHT22;5963;50.184;9.162;2023-07-02T15:17:23;25.20;90.10
11812;DHT22;5963;50.184;9.162;2023-07-02T15:19:53;25.30;89.40
11812;DHT22;5963;50.184;9.162;2023-07-02T15:22:26;25.20;90.00
11812;DHT22;5963;50.184;9.162;2023-07-02T15:24:57;25.10;90.30
11812;DHT22;5963;50.184;9.162;2023-07-02T15:27:33;24.90;90.80
11812;DHT22;5963;50.184;9.162;2023-07-02T15:30:13;24.90;90.40
11812;DHT22;5963;50.184;9.162;2023-07-02T15:32:46;24.50;91.30
11812;DHT22;5963;50.184;9.162;2023-07-02T15:35:28;24.60;90.90
11812;DHT22;5963;50.184;9.162;2023-07-02T15:38:00;24.20;90.60
11812;DHT22;5963;50.184;9.162;2023-07-02T15:40:31;24.10;91.50
11812;DHT22;5963;50.184;9.162;2023-07-02T15:43:09;24.10;91.50
11812;DHT22;5963;50.184;9.162;2023-07-02T15:45:46;23.80;91.60
11812;DHT22;5963;50.184;9.162;2023-07-02T15:48:22;24.30;91.80
11812;DHT22;5963;50.184;9.162;2023-07-02T15:50:52;24.40;91.20
11812;DHT22;5963;50.184;9.162;2023-07-02T15:53:22;24.50;90.80
11812;DHT22;5963;50.184;9.162;2023-07-02T15:55:56;24.20;90.40
11812;DHT22;5963;50.184;9.162;2023-07-02T15:58:27;24.10;90.90
11812;DHT22;5963;50.184;9.162;2023-07-02T16:01:08;24.10;91.20
11812;DHT22;5963;50.184;9.162;2023-07-02T16:03:40;24.00;91.70
11812;DHT22;5963;50.184;9.162;2023-07-02T16:06:11;23.80;91.50
11812;DHT22;5963;50.184;9.162;2023-07-02T16:08:44;23.50;90.60
11812;DHT22;5963;50.184;9.162;2023-07-02T16:11:14;23.60;91.70
11812;DHT22;5963;50.184;9.162;2023-07-02T16:13:45;23.60;91.00
11812;DHT22;5963;50.184;9.162;2023-07-02T16:16:15;23.80;91.60